sensor_id;sensor_type;location;lat;lon;timestamp;temperature;humidity
13464;DHT22;6804;48.774;9.174;2023-06-14T00:00:59;19.40;71.40
13464;DHT22;6804;48.774;9.174;2023-06-14T00:03:29;19.40;71.20
13464;DHT22;6804;48.774;9.174;2023-06-14T00:06:00;19.40;71.30
13464;DHT22;6804;48.774;9.174;2023-06-14T00:08:32;19.40;71.60
13464;DHT22;6804;48.774;9.174;2023-06-14T00:11:00;19.30;72.20
13464;DHT22;6804;48.774;9.174;2023-06-14T00:13:29;19.20;72.90
13464;DHT22;6804;48.774;9.174;2023-06-14T00:15:57;19.20;72.90
13464;DHT22;6804;48.774;9.174;2023-06-14T00:18:25;19.10;72.70
13464;DHT22;6804;48.774;9.174;2023-06-14T00:20:58;19.10;72.70
13464;DHT22;6804;48.774;9.174;2023-06-14T00:23:30;19.10;72.70
13464;DHT22;6804;48.774;9.174;2023-06-14T00:26:00;19.10;72.70
13464;DHT22;6804;48.774;9.174;2023-06-14T00:28:27;18.90;73.60
13464;DHT22;6804;48.774;9.174;2023-06-14T00:30:55;18.80;74.00
13464;DHT22;6804;48.774;9.174;2023-06-14T00:33:22;18.70;74.30
13464;DHT22;6804;48.774;9.174;2023-06-14T00:35:50;18.60;74.50
13464;DHT22;6804;48.774;9.174;2023-06-14T00:38:21;18.60;74.60
13464;DHT22;6804;48.774;9.174;2023-06-14T00:40:50;18.60;75.20
13464;DHT22;6804;48.774;9.174;2023-06-14T00:43:23;18.40;75.50
13464;DHT22;6804;48.774;9.174;2023-06-14T00:45:54;18.40;76.60
13464;DHT22;6804;48.774;9.174;2023-06-14T00:48:21;18.40;75.60
13464;DHT22;6804;48.774;9.174;2023-06-14T00:50:52;18.30;75.60
13464;DHT22;6804;48.774;9.174;2023-06-14T00:53:20;18.30;75.70
13464;DHT22;6804;48.774;9.174;2023-06-14T00:55:52;18.40;76.00
13464;DHT22;6804;48.774;9.174;2023-06-14T00:58:23;18.40;76.10
13464;DHT22;6804;48.774;9.174;2023-06-14T01:00:53;18.40;75.70
13464;DHT22;6804;48.774;9.174;2023-06-14T01:03:20;18.40;75.70
13464;DHT22;6804;48.774;9.174;2023-06-14T01:05:59;18.30;75.50
13464;DHT22;6804;48.774;9.174;2023-06-14T01:08:39;18.20;76.10
13464;DHT22;6804;48.774;9.174;2023-06-14T01:11:14;18.20;75.80
13464;DHT22;6804;48.774;9.174;2023-06-14T01:14:05;18.20;75.30
13464;DHT22;6804;48.774;9.174;2023-06-14T01:16:54;18.20;75.70
13464;DHT22;6804;48.774;9.174;2023-06-14T01:19:23;18.30;75.50
13464;DHT22;6804;48.774;9.174;2023-06-14T01:21:55;18.20;75.20
13464;DHT22;6804;48.774;9.174;2023-06-14T01:24:24;18.20;75.20
13464;DHT22;6804;48.774;9.174;2023-06-14T01:26:59;18.00;75.80
13464;DHT22;6804;48.774;9.174;2023-06-14T01:29:30;17.90;76.70
13464;DHT22;6804;48.774;9.174;2023-06-14T01:32:01;17.90;76.40
13464;DHT22;6804;48.774;9.174;2023-06-14T01:34:31;18.00;76.40
13464;DHT22;6804;48.774;9.174;2023-06-14T01:37:02;18.00;76.50
13464;DHT22;6804;48.774;9.174;2023-06-14T01:39:32;17.90;76.60
13464;DHT22;6804;48.774;9.174;2023-06-14T01:42:04;17.90;76.80
13464;DHT22;6804;48.774;9.174;2023-06-14T01:44:32;17.70;77.40
13464;DHT22;6804;48.774;9.174;2023-06-14T01:47:03;17.70;77.80
13464;DHT22;6804;48.774;9.174;2023-06-14T01:49:33;17.70;77.40
13464;DHT22;6804;48.774;9.174;2023-06-14T01:52:03;17.70;77.80
13464;DHT22;6804;48.774;9.174;2023-06-14T01:54:33;17.70;77.30
13464;DHT22;6804;48.774;9.174;2023-06-14T01:57:01;17.70;77.40
13464;DHT22;6804;48.774;9.174;2023-06-14T01:59:28;17.60;77.50
13464;DHT22;6804;48.774;9.174;2023-06-14T02:01:56;17.60;77.80
13464;DHT22;6804;48.774;9.174;2023-06-14T02:04:25;17.50;78.20
13464;DHT22;6804;48.774;9.174;2023-06-14T02:07:11;17.50;78.20
13464;DHT22;6804;48.774;9.174;2023-06-14T02:09:42;17.40;78.40
13464;DHT22;6804;48.774;9.174;2023-06-14T02:12:23;17.40;78.70
13464;DHT22;6804;48.774;9.174;2023-06-14T02:14:53;17.30;79.30
13464;DHT22;6804;48.774;9.174;2023-06-14T02:17:22;17.40;79.00
13464;DHT22;6804;48.774;9.174;2023-06-14T02:19:49;17.30;79.60
13464;DHT22;6804;48.774;9.174;2023-06-14T02:22:17;17.30;79.50
13464;DHT22;6804;48.774;9.174;2023-06-14T02:24:47;17.30;79.00
13464;DHT22;6804;48.774;9.174;2023-06-14T02:27:14;17.30;79.10
13464;DHT22;6804;48.774;9.174;2023-06-14T02:29:42;17.20;78.90
13464;DHT22;6804;48.774;9.174;2023-06-14T02:32:09;17.20;79.50
13464;DHT22;6804;48.774;9.174;2023-06-14T02:34:36;17.10;79.20
13464;DHT22;6804;48.774;9.174;2023-06-14T02:37:06;17.00;80.00
13464;DHT22;6804;48.774;9.174;2023-06-14T02:39:37;17.00;79.80
13464;DHT22;6804;48.774;9.174;2023-06-14T02:42:06;17.00;80.30
13464;DHT22;6804;48.774;9.174;2023-06-14T02:44:35;17.00;80.30
13464;DHT22;6804;48.774;9.174;2023-06-14T02:47:03;17.00;80.20
13464;DHT22;6804;48.774;9.174;2023-06-14T02:49:31;16.90;80.80
13464;DHT22;6804;48.774;9.174;2023-06-14T02:52:01;16.80;81.00
13464;DHT22;6804;48.774;9.174;2023-06-14T02:54:29;16.80;81.00
13464;DHT22;6804;48.774;9.174;2023-06-14T02:56:56;16.80;81.20
13464;DHT22;6804;48.774;9.174;2023-06-14T02:59:25;16.80;81.20
13464;DHT22;6804;48.774;9.174;2023-06-14T03:01:53;16.80;80.90
13464;DHT22;6804;48.774;9.174;2023-06-14T03:04:20;16.70;81.10
13464;DHT22;6804;48.774;9.174;2023-06-14T03:06:51;16.80;80.80
13464;DHT22;6804;48.774;9.174;2023-06-14T03:09:19;16.80;80.80
13464;DHT22;6804;48.774;9.174;2023-06-14T03:11:46;16.80;80.90
13464;DHT22;6804;48.774;9.174;2023-06-14T03:14:14;16.60;81.30
13464;DHT22;6804;48.774;9.174;2023-06-14T03:16:44;16.60;81.30
13464;DHT22;6804;48.774;9.174;2023-06-14T03:19:12;16.50;81.40
13464;DHT22;6804;48.774;9.174;2023-06-14T03:21:40;16.60;81.50
13464;DHT22;6804;48.774;9.174;2023-06-14T03:24:10;16.50;81.70
13464;DHT22;6804;48.774;9.174;2023-06-14T03:26:37;16.70;81.50
13464;DHT22;6804;48.774;9.174;2023-06-14T03:29:04;16.70;81.00
13464;DHT22;6804;48.774;9.174;2023-06-14T03:31:32;16.80;80.90
13464;DHT22;6804;48.774;9.174;2023-06-14T03:34:06;16.80;80.80
13464;DHT22;6804;48.774;9.174;2023-06-14T03:36:36;16.90;81.00
13464;DHT22;6804;48.774;9.174;2023-06-14T03:39:07;16.90;80.70
13464;DHT22;6804;48.774;9.174;2023-06-14T03:41:35;16.70;81.20
13464;DHT22;6804;48.774;9.174;2023-06-14T03:44:02;16.70;81.60
13464;DHT22;6804;48.774;9.174;2023-06-14T03:46:32;16.70;81.60
13464;DHT22;6804;48.774;9.174;2023-06-14T03:49:03;16.70;81.20
13464;DHT22;6804;48.774;9.174;2023-06-14T03:51:42;16.40;82.60
13464;DHT22;6804;48.774;9.174;2023-06-14T03:54:16;16.30;82.80
13464;DHT22;6804;48.774;9.174;2023-06-14T03:56:50;16.40;82.60
13464;DHT22;6804;48.774;9.174;2023-06-14T03:59:17;16.40;82.80
13464;DHT22;6804;48.774;9.174;2023-06-14T04:01:44;16.50;82.60
13464;DHT22;6804;48.774;9.174;2023-06-14T04:04:14;16.50;82.80
13464;DHT22;6804;48.774;9.174;2023-06-14T04:06:42;16.60;82.60
13464;DHT22;6804;48.774;9.174;2023-06-14T04:09:09;16.70;82.80
13464;DHT22;6804;48.774;9.174;2023-06-14T04:11:40;16.80;82.30
13464;DHT22;6804;48.774;9.174;2023-06-14T04:14:07;16.90;82.40
13464;DHT22;6804;48.774;9.174;2023-06-14T04:16:36;17.00;82.40
13464;DHT22;6804;48.774;9.174;2023-06-14T04:19:06;17.10;82.10
13464;DHT22;6804;48.774;9.174;2023-06-14T04:21:36;17.20;81.80
13464;DHT22;6804;48.774;9.174;2023-06-14T04:24:07;17.30;81.30
13464;DHT22;6804;48.774;9.174;2023-06-14T04:26:39;17.40;80.60
13464;DHT22;6804;48.774;9.174;2023-06-14T04:29:09;17.40;81.10
13464;DHT22;6804;48.774;9.174;2023-06-14T04:31:39;17.50;80.90
13464;DHT22;6804;48.774;9.174;2023-06-14T04:34:08;17.60;80.70
13464;DHT22;6804;48.774;9.174;2023-06-14T04:36:43;17.60;80.50
13464;DHT22;6804;48.774;9.174;2023-06-14T04:39:15;17.70;80.40
13464;DHT22;6804;48.774;9.174;2023-06-14T04:41:43;17.80;79.70
13464;DHT22;6804;48.774;9.174;2023-06-14T04:44:18;17.90;80.10
13464;DHT22;6804;48.774;9.174;2023-06-14T04:46:46;18.00;79.60
13464;DHT22;6804;48.774;9.174;2023-06-14T04:49:16;18.10;79.70
13464;DHT22;6804;48.774;9.174;2023-06-14T04:51:47;18.20;79.40
13464;DHT22;6804;48.774;9.174;2023-06-14T04:54:17;18.30;78.70
13464;DHT22;6804;48.774;9.174;2023-06-14T04:56:50;18.40;78.70
13464;DHT22;6804;48.774;9.174;2023-06-14T04:59:19;18.50;78.50
13464;DHT22;6804;48.774;9.174;2023-06-14T05:01:51;18.60;78.60
13464;DHT22;6804;48.774;9.174;2023-06-14T05:04:20;18.70;78.40
13464;DHT22;6804;48.774;9.174;2023-06-14T05:06:50;18.80;78.10
13464;DHT22;6804;48.774;9.174;2023-06-14T05:09:20;18.80;78.00
13464;DHT22;6804;48.774;9.174;2023-06-14T05:11:51;18.90;78.20
13464;DHT22;6804;48.774;9.174;2023-06-14T05:14:19;19.10;77.90
13464;DHT22;6804;48.774;9.174;2023-06-14T05:16:49;19.30;77.50
13464;DHT22;6804;48.774;9.174;2023-06-14T05:19:23;19.20;76.60
13464;DHT22;6804;48.774;9.174;2023-06-14T05:21:52;19.30;76.40
13464;DHT22;6804;48.774;9.174;2023-06-14T05:24:23;19.00;77.40
13464;DHT22;6804;48.774;9.174;2023-06-14T05:26:52;19.10;78.10
13464;DHT22;6804;48.774;9.174;2023-06-14T05:29:22;19.30;77.50
13464;DHT22;6804;48.774;9.174;2023-06-14T05:31:52;19.60;75.70
13464;DHT22;6804;48.774;9.174;2023-06-14T05:34:20;19.50;75.10
13464;DHT22;6804;48.774;9.174;2023-06-14T05:36:49;19.30;74.60
13464;DHT22;6804;48.774;9.174;2023-06-14T05:39:20;19.20;75.30
13464;DHT22;6804;48.774;9.174;2023-06-14T05:42:09;18.90;76.20
13464;DHT22;6804;48.774;9.174;2023-06-14T05:44:37;19.00;76.20
13464;DHT22;6804;48.774;9.174;2023-06-14T05:47:05;19.20;75.60
13464;DHT22;6804;48.774;9.174;2023-06-14T05:49:35;19.30;75.60
13464;DHT22;6804;48.774;9.174;2023-06-14T05:52:04;19.20;75.50
13464;DHT22;6804;48.774;9.174;2023-06-14T05:54:34;19.20;75.90
13464;DHT22;6804;48.774;9.174;2023-06-14T05:57:03;19.40;75.90
13464;DHT22;6804;48.774;9.174;2023-06-14T05:59:33;19.50;75.20
13464;DHT22;6804;48.774;9.174;2023-06-14T06:02:03;19.50;75.30
13464;DHT22;6804;48.774;9.174;2023-06-14T06:04:31;19.50;75.70
13464;DHT22;6804;48.774;9.174;2023-06-14T06:07:00;19.70;75.70
13464;DHT22;6804;48.774;9.174;2023-06-14T06:09:37;19.90;74.70
13464;DHT22;6804;48.774;9.174;2023-06-14T06:12:09;20.30;74.50
13464;DHT22;6804;48.774;9.174;2023-06-14T06:14:41;20.70;72.80
13464;DHT22;6804;48.774;9.174;2023-06-14T06:17:33;20.80;72.30
13464;DHT22;6804;48.774;9.174;2023-06-14T06:20:03;20.70;73.00
13464;DHT22;6804;48.774;9.174;2023-06-14T06:22:35;21.00;73.20
13464;DHT22;6804;48.774;9.174;2023-06-14T06:25:09;21.30;72.00
13464;DHT22;6804;48.774;9.174;2023-06-14T06:27:40;21.50;71.00
13464;DHT22;6804;48.774;9.174;2023-06-14T06:30:10;21.20;70.90
13464;DHT22;6804;48.774;9.174;2023-06-14T06:32:40;20.80;71.70
13464;DHT22;6804;48.774;9.174;2023-06-14T06:35:12;20.80;72.00
13464;DHT22;6804;48.774;9.174;2023-06-14T06:37:41;20.70;73.00
13464;DHT22;6804;48.774;9.174;2023-06-14T06:40:11;20.60;72.80
13464;DHT22;6804;48.774;9.174;2023-06-14T06:42:42;20.60;73.60
13464;DHT22;6804;48.774;9.174;2023-06-14T06:45:13;20.90;73.40
13464;DHT22;6804;48.774;9.174;2023-06-14T06:47:45;21.30;72.90
13464;DHT22;6804;48.774;9.174;2023-06-14T06:50:14;21.40;71.80
13464;DHT22;6804;48.774;9.174;2023-06-14T06:52:42;21.20;71.90
13464;DHT22;6804;48.774;9.174;2023-06-14T06:55:13;20.70;72.50
13464;DHT22;6804;48.774;9.174;2023-06-14T06:57:41;20.40;73.60
13464;DHT22;6804;48.774;9.174;2023-06-14T07:00:10;20.10;74.60
13464;DHT22;6804;48.774;9.174;2023-06-14T07:02:42;20.20;74.40
13464;DHT22;6804;48.774;9.174;2023-06-14T07:05:15;20.30;74.00
13464;DHT22;6804;48.774;9.174;2023-06-14T07:07:43;20.40;73.80
13464;DHT22;6804;48.774;9.174;2023-06-14T07:10:14;20.60;73.60
13464;DHT22;6804;48.774;9.174;2023-06-14T07:12:44;20.60;74.30
13464;DHT22;6804;48.774;9.174;2023-06-14T07:15:12;21.00;74.70
13464;DHT22;6804;48.774;9.174;2023-06-14T07:17:41;21.40;73.70
13464;DHT22;6804;48.774;9.174;2023-06-14T07:20:17;21.80;72.60
13464;DHT22;6804;48.774;9.174;2023-06-14T07:22:53;22.20;70.60
13464;DHT22;6804;48.774;9.174;2023-06-14T07:25:26;22.60;69.60
13464;DHT22;6804;48.774;9.174;2023-06-14T07:28:12;22.90;69.10
13464;DHT22;6804;48.774;9.174;2023-06-14T07:30:40;23.10;68.00
13464;DHT22;6804;48.774;9.174;2023-06-14T07:33:14;23.00;66.90
13464;DHT22;6804;48.774;9.174;2023-06-14T07:35:42;22.70;66.90
13464;DHT22;6804;48.774;9.174;2023-06-14T07:38:16;22.70;68.10
13464;DHT22;6804;48.774;9.174;2023-06-14T07:40:45;22.50;67.40
13464;DHT22;6804;48.774;9.174;2023-06-14T07:43:14;21.60;68.80
13464;DHT22;6804;48.774;9.174;2023-06-14T07:45:42;21.70;69.50
13464;DHT22;6804;48.774;9.174;2023-06-14T07:48:11;21.90;70.80
13464;DHT22;6804;48.774;9.174;2023-06-14T07:50:40;22.30;69.60
13464;DHT22;6804;48.774;9.174;2023-06-14T07:53:09;22.60;68.90
13464;DHT22;6804;48.774;9.174;2023-06-14T07:55:37;22.90;68.00
13464;DHT22;6804;48.774;9.174;2023-06-14T07:58:12;23.10;68.10
13464;DHT22;6804;48.774;9.174;2023-06-14T08:00:44;23.00;67.00
13464;DHT22;6804;48.774;9.174;2023-06-14T08:03:14;22.50;67.60
13464;DHT22;6804;48.774;9.174;2023-06-14T08:05:42;22.00;69.60
13464;DHT22;6804;48.774;9.174;2023-06-14T08:08:13;22.20;70.50
13464;DHT22;6804;48.774;9.174;2023-06-14T08:10:47;22.60;69.00
13464;DHT22;6804;48.774;9.174;2023-06-14T08:13:20;22.60;68.70
13464;DHT22;6804;48.774;9.174;2023-06-14T08:15:51;22.70;69.90
13464;DHT22;6804;48.774;9.174;2023-06-14T08:18:23;22.90;69.60
13464;DHT22;6804;48.774;9.174;2023-06-14T08:20:54;23.20;69.70
13464;DHT22;6804;48.774;9.174;2023-06-14T08:23:26;23.40;69.10
13464;DHT22;6804;48.774;9.174;2023-06-14T08:25:57;23.70;68.20
13464;DHT22;6804;48.774;9.174;2023-06-14T08:28:29;23.20;68.70
13464;DHT22;6804;48.774;9.174;2023-06-14T08:30:56;22.90;70.20
13464;DHT22;6804;48.774;9.174;2023-06-14T08:33:43;22.60;71.30
13464;DHT22;6804;48.774;9.174;2023-06-14T08:36:14;22.50;71.40
13464;DHT22;6804;48.774;9.174;2023-06-14T08:38:45;22.80;71.90
13464;DHT22;6804;48.774;9.174;2023-06-14T08:41:20;22.90;71.20
13464;DHT22;6804;48.774;9.174;2023-06-14T08:43:50;23.20;70.50
13464;DHT22;6804;48.774;9.174;2023-06-14T08:46:18;23.50;69.80
13464;DHT22;6804;48.774;9.174;2023-06-14T08:48:49;23.30;69.70
13464;DHT22;6804;48.774;9.174;2023-06-14T08:51:19;22.80;71.80
13464;DHT22;6804;48.774;9.174;2023-06-14T08:53:55;23.10;71.90
13464;DHT22;6804;48.774;9.174;2023-06-14T08:56:26;23.20;70.90
13464;DHT22;6804;48.774;9.174;2023-06-14T08:58:59;23.10;70.80
13464;DHT22;6804;48.774;9.174;2023-06-14T09:01:35;23.30;71.10
13464;DHT22;6804;48.774;9.174;2023-06-14T09:04:04;23.30;70.00
13464;DHT22;6804;48.774;9.174;2023-06-14T09:06:35;23.10;70.70
13464;DHT22;6804;48.774;9.174;2023-06-14T09:09:06;23.20;70.00
13464;DHT22;6804;48.774;9.174;2023-06-14T09:11:37;23.00;68.90
13464;DHT22;6804;48.774;9.174;2023-06-14T09:14:26;22.70;70.40
13464;DHT22;6804;48.774;9.174;2023-06-14T09:16:57;22.90;71.70
13464;DHT22;6804;48.774;9.174;2023-06-14T09:19:27;23.20;70.90
13464;DHT22;6804;48.774;9.174;2023-06-14T09:21:56;23.50;71.00
13464;DHT22;6804;48.774;9.174;2023-06-14T09:24:24;23.90;70.00
13464;DHT22;6804;48.774;9.174;2023-06-14T09:26:57;24.20;69.20
13464;DHT22;6804;48.774;9.174;2023-06-14T09:29:26;24.40;69.20
13464;DHT22;6804;48.774;9.174;2023-06-14T09:31:58;24.70;66.90
13464;DHT22;6804;48.774;9.174;2023-06-14T09:34:26;24.70;65.80
13464;DHT22;6804;48.774;9.174;2023-06-14T09:36:57;24.50;66.00
13464;DHT22;6804;48.774;9.174;2023-06-14T09:39:25;24.30;65.80
13464;DHT22;6804;48.774;9.174;2023-06-14T09:41:56;24.40;67.70
13464;DHT22;6804;48.774;9.174;2023-06-14T09:44:27;24.70;68.10
13464;DHT22;6804;48.774;9.174;2023-06-14T09:46:56;25.00;67.90
13464;DHT22;6804;48.774;9.174;2023-06-14T09:49:43;25.30;66.10
13464;DHT22;6804;48.774;9.174;2023-06-14T09:52:18;25.60;65.30
13464;DHT22;6804;48.774;9.174;2023-06-14T09:54:48;25.90;64.70
13464;DHT22;6804;48.774;9.174;2023-06-14T09:57:20;26.00;64.40
13464;DHT22;6804;48.774;9.174;2023-06-14T09:59:59;26.20;64.90
13464;DHT22;6804;48.774;9.174;2023-06-14T10:02:36;26.50;63.50
13464;DHT22;6804;48.774;9.174;2023-06-14T10:05:11;26.50;63.70
13464;DHT22;6804;48.774;9.174;2023-06-14T10:07:52;26.40;60.60
13464;DHT22;6804;48.774;9.174;2023-06-14T10:10:20;25.40;61.20
13464;DHT22;6804;48.774;9.174;2023-06-14T10:12:48;24.60;63.70
13464;DHT22;6804;48.774;9.174;2023-06-14T10:15:27;24.50;65.30
13464;DHT22;6804;48.774;9.174;2023-06-14T10:18:03;24.60;65.90
13464;DHT22;6804;48.774;9.174;2023-06-14T10:20:37;24.70;65.70
13464;DHT22;6804;48.774;9.174;2023-06-14T10:23:10;25.00;64.20
13464;DHT22;6804;48.774;9.174;2023-06-14T10:25:42;25.30;62.80
13464;DHT22;6804;48.774;9.174;2023-06-14T10:28:20;25.50;59.10
13464;DHT22;6804;48.774;9.174;2023-06-14T10:31:10;25.50;61.30
13464;DHT22;6804;48.774;9.174;2023-06-14T10:33:48;25.50;62.30
13464;DHT22;6804;48.774;9.174;2023-06-14T10:36:30;25.60;62.30
13464;DHT22;6804;48.774;9.174;2023-06-14T10:39:09;25.90;62.30
13464;DHT22;6804;48.774;9.174;2023-06-14T10:41:39;26.30;61.30
13464;DHT22;6804;48.774;9.174;2023-06-14T10:44:42;26.60;61.30
13464;DHT22;6804;48.774;9.174;2023-06-14T10:47:21;26.60;60.20
13464;DHT22;6804;48.774;9.174;2023-06-14T10:49:52;26.50;59.70
13464;DHT22;6804;48.774;9.174;2023-06-14T10:52:26;26.50;59.50
13464;DHT22;6804;48.774;9.174;2023-06-14T10:55:11;26.30;59.80
13464;DHT22;6804;48.774;9.174;2023-06-14T10:57:42;26.40;60.10
13464;DHT22;6804;48.774;9.174;2023-06-14T11:00:13;26.60;59.50
13464;DHT22;6804;48.774;9.174;2023-06-14T11:05:52;26.80;58.60
13464;DHT22;6804;48.774;9.174;2023-06-14T11:08:45;27.10;57.80
13464;DHT22;6804;48.774;9.174;2023-06-14T11:11:22;27.30;57.40
13464;DHT22;6804;48.774;9.174;2023-06-14T11:13:52;27.40;56.40
13464;DHT22;6804;48.774;9.174;2023-06-14T11:16:32;27.00;56.70
13464;DHT22;6804;48.774;9.174;2023-06-14T11:19:01;26.00;58.40
13464;DHT22;6804;48.774;9.174;2023-06-14T11:21:32;25.60;59.00
13464;DHT22;6804;48.774;9.174;2023-06-14T11:24:01;25.70;58.90
13464;DHT22;6804;48.774;9.174;2023-06-14T11:26:30;26.00;58.60
13464;DHT22;6804;48.774;9.174;2023-06-14T11:29:01;25.80;59.30
13464;DHT22;6804;48.774;9.174;2023-06-14T11:31:51;26.20;57.90
13464;DHT22;6804;48.774;9.174;2023-06-14T11:34:19;25.60;58.60
13464;DHT22;6804;48.774;9.174;2023-06-14T11:36:49;25.60;58.60
13464;DHT22;6804;48.774;9.174;2023-06-14T11:39:24;25.60;58.00
13464;DHT22;6804;48.774;9.174;2023-06-14T11:41:56;25.50;57.90
13464;DHT22;6804;48.774;9.174;2023-06-14T11:44:34;25.40;57.80
13464;DHT22;6804;48.774;9.174;2023-06-14T11:47:06;25.40;57.90
13464;DHT22;6804;48.774;9.174;2023-06-14T11:49:39;25.40;56.60
13464;DHT22;6804;48.774;9.174;2023-06-14T11:52:10;25.40;57.30
13464;DHT22;6804;48.774;9.174;2023-06-14T11:54:41;25.20;57.80
13464;DHT22;6804;48.774;9.174;2023-06-14T11:57:10;25.30;57.50
13464;DHT22;6804;48.774;9.174;2023-06-14T11:59:42;25.30;57.20
13464;DHT22;6804;48.774;9.174;2023-06-14T12:02:14;25.40;57.80
13464;DHT22;6804;48.774;9.174;2023-06-14T12:04:43;25.80;57.10
13464;DHT22;6804;48.774;9.174;2023-06-14T12:07:14;25.90;56.60
13464;DHT22;6804;48.774;9.174;2023-06-14T12:10:04;26.00;56.50
13464;DHT22;6804;48.774;9.174;2023-06-14T12:12:36;26.10;56.30
13464;DHT22;6804;48.774;9.174;2023-06-14T12:15:14;26.10;56.40
13464;DHT22;6804;48.774;9.174;2023-06-14T12:17:44;26.20;56.70
13464;DHT22;6804;48.774;9.174;2023-06-14T12:20:13;26.30;56.30
13464;DHT22;6804;48.774;9.174;2023-06-14T12:22:54;26.20;56.50
13464;DHT22;6804;48.774;9.174;2023-06-14T12:25:28;26.30;57.20
13464;DHT22;6804;48.774;9.174;2023-06-14T12:28:05;26.50;56.70
13464;DHT22;6804;48.774;9.174;2023-06-14T12:30:33;26.60;55.90
13464;DHT22;6804;48.774;9.174;2023-06-14T12:33:03;26.70;56.00
13464;DHT22;6804;48.774;9.174;2023-06-14T12:35:44;26.60;56.00
13464;DHT22;6804;48.774;9.174;2023-06-14T12:38:33;26.80;56.30
13464;DHT22;6804;48.774;9.174;2023-06-14T12:41:03;26.90;56.40
13464;DHT22;6804;48.774;9.174;2023-06-14T12:43:35;26.90;55.70
13464;DHT22;6804;48.774;9.174;2023-06-14T12:46:03;26.90;56.10
13464;DHT22;6804;48.774;9.174;2023-06-14T12:48:33;26.90;56.10
13464;DHT22;6804;48.774;9.174;2023-06-14T12:51:02;26.90;56.50
13464;DHT22;6804;48.774;9.174;2023-06-14T12:53:34;26.90;56.10
13464;DHT22;6804;48.774;9.174;2023-06-14T12:56:05;27.00;56.20
13464;DHT22;6804;48.774;9.174;2023-06-14T12:58:34;27.00;56.20
13464;DHT22;6804;48.774;9.174;2023-06-14T13:01:05;27.20;56.30
13464;DHT22;6804;48.774;9.174;2023-06-14T13:03:35;27.40;55.80
13464;DHT22;6804;48.774;9.174;2023-06-14T13:06:03;27.50;56.00
13464;DHT22;6804;48.774;9.174;2023-06-14T13:08:31;27.70;55.00
13464;DHT22;6804;48.774;9.174;2023-06-14T13:11:01;27.10;54.80
13464;DHT22;6804;48.774;9.174;2023-06-14T13:13:32;27.00;55.80
13464;DHT22;6804;48.774;9.174;2023-06-14T13:16:03;27.00;55.40
13464;DHT22;6804;48.774;9.174;2023-06-14T13:18:33;26.50;55.20
13464;DHT22;6804;48.774;9.174;2023-06-14T13:21:03;26.20;56.40
13464;DHT22;6804;48.774;9.174;2023-06-14T13:23:35;26.40;56.40
13464;DHT22;6804;48.774;9.174;2023-06-14T13:26:07;26.40;56.10
13464;DHT22;6804;48.774;9.174;2023-06-14T13:28:34;26.70;56.10
13464;DHT22;6804;48.774;9.174;2023-06-14T13:31:02;26.70;55.30
13464;DHT22;6804;48.774;9.174;2023-06-14T13:33:35;25.70;56.60
13464;DHT22;6804;48.774;9.174;2023-06-14T13:36:04;25.40;58.10
13464;DHT22;6804;48.774;9.174;2023-06-14T13:38:38;25.50;58.70
13464;DHT22;6804;48.774;9.174;2023-06-14T13:41:07;25.70;58.70
13464;DHT22;6804;48.774;9.174;2023-06-14T13:43:36;25.50;59.20
13464;DHT22;6804;48.774;9.174;2023-06-14T13:46:05;25.50;59.40
13464;DHT22;6804;48.774;9.174;2023-06-14T13:48:33;25.90;59.40
13464;DHT22;6804;48.774;9.174;2023-06-14T13:51:04;26.40;58.10
13464;DHT22;6804;48.774;9.174;2023-06-14T13:53:34;26.80;57.10
13464;DHT22;6804;48.774;9.174;2023-06-14T13:56:04;27.00;56.20
13464;DHT22;6804;48.774;9.174;2023-06-14T13:58:37;27.20;56.20
13464;DHT22;6804;48.774;9.174;2023-06-14T14:01:05;27.20;56.40
13464;DHT22;6804;48.774;9.174;2023-06-14T14:03:37;27.20;55.90
13464;DHT22;6804;48.774;9.174;2023-06-14T14:06:05;26.40;56.50
13464;DHT22;6804;48.774;9.174;2023-06-14T14:08:35;26.40;56.90
13464;DHT22;6804;48.774;9.174;2023-06-14T14:11:04;26.50;57.00
13464;DHT22;6804;48.774;9.174;2023-06-14T14:13:36;26.60;56.40
13464;DHT22;6804;48.774;9.174;2023-06-14T14:16:05;26.70;56.00
13464;DHT22;6804;48.774;9.174;2023-06-14T14:18:34;26.20;56.50
13464;DHT22;6804;48.774;9.174;2023-06-14T14:21:03;25.70;57.70
13464;DHT22;6804;48.774;9.174;2023-06-14T14:23:34;25.60;57.90
13464;DHT22;6804;48.774;9.174;2023-06-14T14:26:06;25.10;59.40
13464;DHT22;6804;48.774;9.174;2023-06-14T14:28:36;25.20;58.90
13464;DHT22;6804;48.774;9.174;2023-06-14T14:31:04;25.40;59.00
13464;DHT22;6804;48.774;9.174;2023-06-14T14:33:37;25.70;59.40
13464;DHT22;6804;48.774;9.174;2023-06-14T14:36:06;26.00;59.30
13464;DHT22;6804;48.774;9.174;2023-06-14T14:38:35;26.30;59.10
13464;DHT22;6804;48.774;9.174;2023-06-14T14:41:03;26.50;58.40
13464;DHT22;6804;48.774;9.174;2023-06-14T14:43:31;26.50;58.30
13464;DHT22;6804;48.774;9.174;2023-06-14T14:46:03;26.50;58.90
13464;DHT22;6804;48.774;9.174;2023-06-14T14:48:31;26.60;58.20
13464;DHT22;6804;48.774;9.174;2023-06-14T14:50:59;26.70;57.90
13464;DHT22;6804;48.774;9.174;2023-06-14T14:53:29;26.90;57.80
13464;DHT22;6804;48.774;9.174;2023-06-14T14:55:57;27.00;57.40
13464;DHT22;6804;48.774;9.174;2023-06-14T14:58:25;27.00;57.10
13464;DHT22;6804;48.774;9.174;2023-06-14T15:00:56;27.00;57.50
13464;DHT22;6804;48.774;9.174;2023-06-14T15:03:28;26.80;56.70
13464;DHT22;6804;48.774;9.174;2023-06-14T15:05:57;26.80;57.20
13464;DHT22;6804;48.774;9.174;2023-06-14T15:08:43;26.90;57.10
13464;DHT22;6804;48.774;9.174;2023-06-14T15:11:18;27.10;56.50
13464;DHT22;6804;48.774;9.174;2023-06-14T15:13:49;27.10;55.70
13464;DHT22;6804;48.774;9.174;2023-06-14T15:16:17;27.10;55.70
13464;DHT22;6804;48.774;9.174;2023-06-14T15:19:05;27.10;55.90
13464;DHT22;6804;48.774;9.174;2023-06-14T15:21:36;27.10;56.90
13464;DHT22;6804;48.774;9.174;2023-06-14T15:24:08;27.10;57.00
13464;DHT22;6804;48.774;9.174;2023-06-14T15:26:38;27.10;56.80
13464;DHT22;6804;48.774;9.174;2023-06-14T15:29:07;27.10;57.20
13464;DHT22;6804;48.774;9.174;2023-06-14T15:31:38;27.10;57.20
13464;DHT22;6804;48.774;9.174;2023-06-14T15:34:08;27.10;56.80
13464;DHT22;6804;48.774;9.174;2023-06-14T15:36:39;27.00;57.20
13464;DHT22;6804;48.774;9.174;2023-06-14T15:39:08;26.90;57.60
13464;DHT22;6804;48.774;9.174;2023-06-14T15:41:38;26.90;57.00
13464;DHT22;6804;48.774;9.174;2023-06-14T15:44:10;27.00;57.10
13464;DHT22;6804;48.774;9.174;2023-06-14T15:46:38;27.00;57.40
13464;DHT22;6804;48.774;9.174;2023-06-14T15:49:10;26.80;57.40
13464;DHT22;6804;48.774;9.174;2023-06-14T15:51:40;26.60;57.70
13464;DHT22;6804;48.774;9.174;2023-06-14T15:54:11;26.30;58.50
13464;DHT22;6804;48.774;9.174;2023-06-14T15:56:39;26.20;58.80
13464;DHT22;6804;48.774;9.174;2023-06-14T15:59:07;26.10;58.90
13464;DHT22;6804;48.774;9.174;2023-06-14T16:01:39;26.10;58.80
13464;DHT22;6804;48.774;9.174;2023-06-14T16:04:10;26.00;58.80
13464;DHT22;6804;48.774;9.174;2023-06-14T16:06:38;25.90;58.70
13464;DHT22;6804;48.774;9.174;2023-06-14T16:09:06;25.90;58.60
13464;DHT22;6804;48.774;9.174;2023-06-14T16:11:35;25.80;58.20
13464;DHT22;6804;48.774;9.174;2023-06-14T16:14:03;25.70;58.40